Time;durP1;ratioP1;P1;durP2;ratioP2;P2;SDS_P1;SDS_P2;PMS_P1;PMS_P2;Temp;Humidity;BMP_temperature;BMP_pressure;BME280_temperature;BME280_humidity;BME280_pressure;Samples;Min_cycle;Max_cycle;Signal;HPM_P1;HPM_P2
2023/07/20 00:00:25;;;;;;;18.80;7.53;;;;;;;16.68;100.00;101302.88;5028966;28;20483;-69
2023/07/20 00:02:51;;;;;;;15.68;6.35;;;;;;;16.54;100.00;101296.84;5028981;28;20029;-69
2023/07/20 00:05:21;;;;;;;12.38;6.78;;;;;;;16.61;100.00;101304.81;5028917;28;20033;-69
2023/07/20 00:07:47;;;;;;;10.15;6.25;;;;;;;16.62;100.00;101303.78;5012037;28;20075;-70
2023/07/20 00:10:12;;;;;;;8.98;4.97;;;;;;;16.61;100.00;101311.06;5028960;28;20033;-69
2023/07/20 00:12:37;;;;;;;10.98;5.43;;;;;;;16.61;100.00;101312.91;5028797;28;20484;-69
2023/07/20 00:15:03;;;;;;;13.02;5.22;;;;;;;16.63;100.00;101317.00;5028757;28;20045;-69
2023/07/20 00:17:29;;;;;;;12.80;6.13;;;;;;;16.55;100.00;101306.56;5028959;28;20041;-70
2023/07/20 00:19:55;;;;;;;11.70;5.30;;;;;;;16.46;100.00;101310.59;5028942;28;20033;-70
2023/07/20 00:22:20;;;;;;;10.18;5.18;;;;;;;16.39;100.00;101299.91;5028912;28;20093;-70
2023/07/20 00:24:45;;;;;;;13.00;5.60;;;;;;;16.39;100.00;101302.59;5028776;28;20095;-70
2023/07/20 00:27:11;;;;;;;11.88;5.55;;;;;;;16.37;100.00;101310.09;5028504;28;20029;-70
2023/07/20 00:29:36;;;;;;;13.48;5.93;;;;;;;16.35;100.00;101311.34;5028611;28;20409;-70
2023/07/20 00:32:04;;;;;;;12.10;6.07;;;;;;;16.37;100.00;101310.09;5010952;28;20036;-70
2023/07/20 00:34:30;;;;;;;11.25;4.70;;;;;;;16.37;100.00;101307.41;5028750;28;20396;-70
2023/07/20 00:36:55;;;;;;;9.27;4.55;;;;;;;16.34;100.00;101298.94;5028588;28;20036;-70
2023/07/20 00:39:20;;;;;;;10.65;6.70;;;;;;;16.29;100.00;101296.91;5028537;28;20045;-70
2023/07/20 00:41:46;;;;;;;15.30;6.07;;;;;;;16.27;100.00;101296.31;5028599;28;20033;-70
2023/07/20 00:44:11;;;;;;;12.43;6.20;;;;;;;16.31;100.00;101299.38;5028434;28;20125;-70
2023/07/20 00:46:37;;;;;;;18.38;6.20;;;;;;;16.24;100.00;101301.31;5028511;28;20087;-70
2023/07/20 00:49:02;;;;;;;12.60;5.82;;;;;;;16.25;100.00;101309.19;5028516;28;20025;-70
2023/07/20 00:51:28;;;;;;;11.40;6.43;;;;;;;16.21;100.00;101303.41;5028441;28;20103;-70
2023/07/20 00:53:53;;;;;;;10.38;5.43;;;;;;;16.27;100.00;101309.78;5028210;28;20135;-70
2023/07/20 00:56:19;;;;;;;15.02;6.50;;;;;;;16.30;100.00;101313.91;5028435;28;20029;-70
2023/07/20 00:58:45;;;;;;;12.68;6.72;;;;;;;16.32;100.00;101314.47;5028316;28;20044;-70
2023/07/20 01:01:11;;;;;;;13.73;6.45;;;;;;;16.31;100.00;101315.53;5010589;28;20495;-70
2023/07/20 01:03:36;;;;;;;10.60;6.03;;;;;;;16.27;100.00;101303.56;5028288;28;20057;-70
2023/07/20 01:06:21;;;;;;;13.13;5.72;;;;;;;16.30;100.00;101312.03;5028411;28;20040;-70
2023/07/20 01:09:18;;;;;;;13.70;6.30;;;;;;;16.29;100.00;101315.75;5028325;28;20021;-70
2023/07/20 01:11:43;;;;;;;9.90;6.07;;;;;;;16.24;100.00;101320.97;5020489;28;20042;-69
2023/07/20 01:14:11;;;;;;;10.60;5.40;;;;;;;16.20;100.00;101317.09;5028292;28;20392;-70
2023/07/20 01:16:37;;;;;;;14.65;6.95;;;;;;;16.19;100.00;101318.97;5028259;28;20136;-70
2023/07/20 01:19:02;;;;;;;15.18;6.38;;;;;;;16.15;100.00;101315.06;5028017;28;20504;-70
2023/07/20 01:21:48;;;;;;;11.75;6.18;;;;;;;16.15;100.00;101322.31;5028196;28;20037;-70
2023/07/20 01:24:42;;;;;;;14.38;8.20;;;;;;;16.08;100.00;101318.84;5028093;28;20022;-70
2023/07/20 01:27:44;;;;;;;15.38;7.57;;;;;;;16.10;100.00;101316.78;5028166;28;20022;-70
2023/07/20 01:30:12;;;;;;;12.40;6.90;;;;;;;16.04;100.00;101321.19;5028086;28;20113;-70
2023/07/20 01:32:40;;;;;;;13.30;7.13;;;;;;;15.98;100.00;101325.59;5028196;28;20500;-70
2023/07/20 01:35:08;;;;;;;13.57;7.45;;;;;;;15.97;100.00;101323.09;5028088;28;20133;-70
2023/07/20 01:37:34;;;;;;;14.25;7.57;;;;;;;15.93;100.00;101325.41;5010120;28;20095;-70
2023/07/20 01:39:59;;;;;;;17.55;7.88;;;;;;;15.96;100.00;101324.16;5028152;28;20453;-70
2023/07/20 01:42:26;;;;;;;13.50;7.20;;;;;;;15.90;100.00;101315.09;5010435;28;20415;-70
2023/07/20 01:44:54;;;;;;;13.60;6.75;;;;;;;15.93;100.00;101316.53;5031547;28;20061;-70
2023/07/20 01:47:19;;;;;;;14.15;8.45;;;;;;;15.91;100.00;101314.06;5031495;28;20081;-70
2023/07/20 01:49:45;;;;;;;11.95;7.03;;;;;;;15.87;100.00;101314.72;5031584;28;20041;-70
2023/07/20 01:52:10;;;;;;;13.63;6.70;;;;;;;15.86;100.00;101323.81;5031196;28;20037;-70
2023/07/20 01:54:36;;;;;;;14.20;8.35;;;;;;;15.87;100.00;101320.09;5031392;28;20119;-70
2023/07/20 01:57:02;;;;;;;16.08;7.65;;;;;;;15.88;100.00;101322.56;5031170;28;20048;-70
2023/07/20 01:59:27;;;;;;;17.15;8.63;;;;;;;15.89;100.00;101332.28;5031255;28;20128;-70
2023/07/20 02:01:52;;;;;;;17.38;8.90;;;;;;;15.90;100.00;101330.41;5031200;28;20056;-70
2023/07/20 02:04:18;;;;;;;16.60;9.55;;;;;;;15.89;100.00;101329.59;5031330;28;20481;-71
2023/07/20 02:06:43;;;;;;;16.88;8.40;;;;;;;15.90;100.00;101335.78;5031338;28;20113;-70
2023/07/20 02:09:08;;;;;;;19.50;10.80;;;;;;;15.92;100.00;101331.81;5031057;28;20033;-70
2023/07/20 02:11:34;;;;;;;15.65;8.50;;;;;;;15.89;100.00;101336.84;5013478;28;20087;-70
2023/07/20 02:13:59;;;;;;;17.10;10.00;;;;;;;15.90;100.00;101333.09;5030974;28;20036;-70
2023/07/20 02:16:25;;;;;;;15.43;8.88;;;;;;;15.86;100.00;101332.72;5031056;28;20495;-70
2023/07/20 02:18:50;;;;;;;17.10;9.07;;;;;;;15.88;100.00;101341.41;5030815;28;20080;-70
2023/07/20 02:21:15;;;;;;;16.73;10.00;;;;;;;15.85;100.00;101332.94;5030928;28;20034;-70
2023/07/20 02:23:41;;;;;;;17.70;10.48;;;;;;;15.84;100.00;101342.03;5030974;28;20025;-70
2023/07/20 02:26:07;;;;;;;17.65;9.85;;;;;;;15.82;100.00;101336.06;5011737;28;20088;-70
2023/07/20 02:28:32;;;;;;;19.42;11.00;;;;;;;15.79;100.00;101340.00;4994297;28;20025;-70
2023/07/20 02:30:57;;;;;;;18.77;10.48;;;;;;;15.75;100.00;101328.88;5011767;28;20124;-70
2023/07/20 02:33:23;;;;;;;17.38;8.93;;;;;;;15.74;100.00;101329.09;5011855;28;20026;-70
2023/07/20 02:35:49;;;;;;;18.35;9.20;;;;;;;15.68;100.00;101335.31;4993953;28;20056;-70
2023/07/20 02:38:14;;;;;;;20.35;10.27;;;;;;;15.64;100.00;101337.63;5011607;28;20120;-70
2023/07/20 02:40:39;;;;;;;17.27;10.05;;;;;;;15.63;100.00;101349.41;5011760;28;20032;-70
2023/07/20 02:43:05;;;;;;;19.15;10.05;;;;;;;15.64;100.00;101348.38;5011710;28;20026;-70
2023/07/20 02:45:30;;;;;;;20.20;11.05;;;;;;;15.64;100.00;101348.38;5011458;28;20033;-70
2023/07/20 02:47:55;;;;;;;18.20;9.68;;;;;;;15.64;100.00;101350.22;5011497;28;20100;-70
2023/07/20 02:50:22;;;;;;;18.95;10.05;;;;;;;15.63;100.00;101349.41;4993728;28;20030;-70
2023/07/20 02:52:47;;;;;;;20.50;10.57;;;;;;;15.65;100.00;101351.91;5011287;28;20066;-70
2023/07/20 02:55:12;;;;;;;18.10;9.40;;;;;;;15.64;100.00;101364.53;5010109;28;20085;-70
2023/07/20 02:57:38;;;;;;;19.95;11.30;;;;;;;15.65;100.00;101359.97;5011144;28;20044;-70
2023/07/20 03:00:05;;;;;;;22.75;10.88;;;;;;;15.67;100.00;101360.56;5011408;28;20022;-70
2023/07/20 03:02:31;;;;;;;19.77;10.52;;;;;;;15.67;100.00;101366.78;5011272;28;20033;-70
2023/07/20 03:04:58;;;;;;;22.98;12.02;;;;;;;15.67;100.00;101371.31;5011265;28;20487;-70
2023/07/20 03:07:24;;;;;;;19.30;11.52;;;;;;;15.66;100.00;101380.41;4994116;28;20374;-70
2023/07/20 03:09:49;;;;;;;17.88;10.70;;;;;;;15.62;100.00;101371.16;5011130;28;20105;-70
2023/07/20 03:12:15;;;;;;;20.35;10.77;;;;;;;15.59;100.00;101377.78;5011067;28;20073;-70
2023/07/20 03:14:40;;;;;;;16.33;10.05;;;;;;;15.61;100.00;101382.94;5011074;28;20034;-70
2023/07/20 03:17:05;;;;;;;17.98;10.52;;;;;;;15.67;100.00;101384.78;5010819;28;20519;-70
2023/07/20 03:19:31;;;;;;;17.83;9.55;;;;;;;15.61;100.00;101383.75;5010794;28;20026;-70
2023/07/20 03:21:56;;;;;;;17.00;10.23;;;;;;;15.63;100.00;101388.91;5010903;28;20149;-70
2023/07/20 03:24:23;;;;;;;19.40;10.50;;;;;;;15.56;100.00;101381.72;5010824;28;20025;-70
2023/07/20 03:26:48;;;;;;;19.38;10.68;;;;;;;15.59;100.00;101388.53;5011104;28;20033;-70
2023/07/20 03:29:16;;;;;;;15.32;9.75;;;;;;;15.55;100.00;101380.06;5010717;28;20087;-70
2023/07/20 03:31:41;;;;;;;17.38;9.73;;;;;;;15.50;100.00;101384.44;5029751;28;20032;-70
2023/07/20 03:34:08;;;;;;;13.90;9.13;;;;;;;15.44;100.00;101388.00;5011694;28;20037;-70
2023/07/20 03:36:34;;;;;;;15.80;9.52;;;;;;;15.44;100.00;101388.00;5029514;28;20474;-70
2023/07/20 03:38:59;;;;;;;17.77;9.18;;;;;;;15.39;100.00;101393.22;5029308;28;20399;-70
2023/07/20 03:41:24;;;;;;;18.10;10.52;;;;;;;15.37;100.00;101385.34;5029359;28;20037;-70
2023/07/20 03:43:50;;;;;;;19.52;9.80;;;;;;;15.33;100.00;101387.66;5029286;28;20033;-70
2023/07/20 03:46:15;;;;;;;17.38;10.05;;;;;;;15.26;100.00;101384.16;5029104;28;20061;-70
2023/07/20 03:48:41;;;;;;;16.20;9.63;;;;;;;15.24;100.00;101394.31;5029206;28;20540;-70
2023/07/20 03:51:06;;;;;;;14.50;8.85;;;;;;;15.18;100.00;101397.84;5011212;28;20034;-70
2023/07/20 03:53:32;;;;;;;17.33;8.80;;;;;;;15.10;100.00;101395.41;5029089;28;20037;-70
2023/07/20 03:55:58;;;;;;;16.70;10.35;;;;;;;15.08;100.00;101405.53;5028661;28;20054;-70
2023/07/20 03:58:23;;;;;;;19.00;9.52;;;;;;;15.02;100.00;101406.41;5029020;28;20038;-70
2023/07/20 04:00:50;;;;;;;16.85;10.38;;;;;;;14.97;100.00;101411.59;5029020;28;20120;-70
2023/07/20 04:03:17;;;;;;;16.48;10.65;;;;;;;14.90;100.00;101406.22;5009929;28;20481;-70
2023/07/20 04:05:43;;;;;;;17.20;9.63;;;;;;;14.89;100.00;101402.72;5028775;28;20029;-70
2023/07/20 04:08:11;;;;;;;15.15;9.32;;;;;;;14.83;100.00;101403.56;5028795;28;20038;-70
2023/07/20 04:10:36;;;;;;;16.52;9.50;;;;;;;14.81;100.00;101407.50;5011217;28;20424;-70
2023/07/20 04:13:02;;;;;;;17.38;10.00;;;;;;;14.81;100.00;101413.69;5010886;28;20025;-70
2023/07/20 04:15:27;;;;;;;17.90;9.25;;;;;;;14.77;100.00;101414.31;5028753;28;20037;-70
2023/07/20 04:17:52;;;;;;;16.67;9.45;;;;;;;14.76;100.00;101412.69;5009703;28;20423;-70
2023/07/20 04:20:18;;;;;;;16.50;10.82;;;;;;;14.71;100.00;101409.78;5009825;28;20038;-70
2023/07/20 04:22:44;;;;;;;16.08;8.85;;;;;;;14.76;100.00;101415.38;4991953;28;20030;-70
2023/07/20 04:25:09;;;;;;;16.08;9.25;;;;;;;14.74;100.00;101410.19;5009928;28;20065;-70
2023/07/20 04:27:35;;;;;;;13.18;8.30;;;;;;;14.71;100.00;101402.56;5009964;28;20545;-70
2023/07/20 04:30:02;;;;;;;16.08;9.10;;;;;;;14.71;100.00;101410.63;4991947;28;20080;-70
2023/07/20 04:32:27;;;;;;;16.38;8.95;;;;;;;14.75;100.00;101413.69;5009749;28;20030;-70
2023/07/20 04:34:53;;;;;;;13.65;8.27;;;;;;;14.75;100.00;101411.00;5009809;28;20064;-70
2023/07/20 04:37:18;;;;;;;14.52;8.45;;;;;;;14.76;100.00;101413.50;5009472;28;20112;-70
2023/07/20 04:39:43;;;;;;;13.00;7.55;;;;;;;14.80;100.00;101413.88;5009548;28;20496;-70
2023/07/20 04:42:09;;;;;;;15.63;8.48;;;;;;;14.82;100.00;101418.00;5009614;28;20034;-70
2023/07/20 04:44:34;;;;;;;13.00;7.28;;;;;;;14.82;100.00;101414.50;5028414;28;20362;-70
2023/07/20 04:47:00;;;;;;;14.80;8.57;;;;;;;14.87;100.00;101420.91;5028673;28;20033;-70
2023/07/20 04:49:25;;;;;;;16.23;8.50;;;;;;;14.95;100.00;101414.47;5010601;28;20036;-70
2023/07/20 04:51:51;;;;;;;14.77;7.65;;;;;;;14.93;100.00;101415.72;5028444;28;20516;-70
2023/07/20 04:54:18;;;;;;;12.23;7.53;;;;;;;14.94;100.00;101407.47;5028225;28;20096;-70
2023/07/20 04:56:43;;;;;;;13.30;7.85;;;;;;;15.00;100.00;101414.66;5028405;28;20026;-70
2023/07/20 04:59:09;;;;;;;12.25;7.25;;;;;;;15.06;100.00;101411.16;5028259;28;20453;-70
2023/07/20 05:01:34;;;;;;;12.65;8.45;;;;;;;15.13;100.00;101411.91;5027669;28;20025;-70
2023/07/20 05:03:59;;;;;;;15.80;8.38;;;;;;;15.20;100.00;101409.22;5009845;28;20496;-70
2023/07/20 05:06:25;;;;;;;16.42;9.77;;;;;;;15.25;100.00;101419.34;5009390;28;20034;-69
2023/07/20 05:08:51;;;;;;;14.48;9.35;;;;;;;15.23;100.00;101419.53;5010104;28;20035;-69
2023/07/20 05:11:16;;;;;;;15.27;9.65;;;;;;;15.40;100.00;101422.53;5009630;28;20410;-70
2023/07/20 05:13:42;;;;;;;13.60;8.43;;;;;;;15.45;100.00;101414.66;5009555;28;20065;-70
2023/07/20 05:16:07;;;;;;;14.27;8.50;;;;;;;15.47;100.00;101407.22;5009326;28;20389;-70
2023/07/20 05:18:32;;;;;;;12.65;8.07;;;;;;;15.44;100.00;101406.84;5012632;28;20117;-70
2023/07/20 05:20:58;;;;;;;10.82;6.65;;;;;;;15.55;100.00;101414.19;5031941;28;20152;-70
2023/07/20 05:23:23;;;;;;;13.35;6.95;;;;;;;15.63;100.00;101427.38;5032292;28;20037;-70
2023/07/20 05:25:58;;;;;;;10.88;6.82;;;;;;;15.69;100.00;101423.88;5032144;28;20030;-70
2023/07/20 05:28:24;;;;;;;11.90;7.05;;;;;;;15.64;100.00;101422.81;5032138;28;20029;-69
2023/07/20 05:30:54;;;;;;;10.05;5.70;;;;;;;15.69;100.00;101425.72;5032123;28;20355;-70
2023/07/20 05:33:20;;;;;;;12.52;5.53;;;;;;;15.73;100.00;101425.09;5031838;28;20042;-70
2023/07/20 05:35:46;;;;;;;8.98;5.72;;;;;;;15.72;100.00;101420.75;5031960;28;20106;-70
2023/07/20 05:38:11;;;;;;;11.85;6.07;;;;;;;15.73;100.00;101421.56;5031774;28;20469;-70
2023/07/20 05:40:42;;;;;;;7.88;5.18;;;;;;;15.81;100.00;101420.50;5031378;28;20033;-70
2023/07/20 05:43:07;;;;;;;9.73;5.95;;;;;;;15.85;100.00;101430.59;5031701;28;20086;-70
2023/07/20 05:45:33;;;;;;;10.48;6.55;;;;;;;15.89;100.00;101429.13;5013881;28;20037;-70
2023/07/20 05:47:58;;;;;;;10.30;5.55;;;;;;;15.93;100.00;101426.84;5031562;28;20116;-70
2023/07/20 05:50:23;;;;;;;10.63;6.20;;;;;;;15.95;100.00;101444.38;5031567;28;20033;-70
2023/07/20 05:52:52;;;;;;;12.10;7.30;;;;;;;15.98;100.00;101440.44;5031618;28;20029;-70
2023/07/20 05:55:17;;;;;;;15.35;6.60;;;;;;;16.01;100.00;101450.78;5031196;28;20059;-70
2023/07/20 05:57:43;;;;;;;13.63;7.50;;;;;;;16.09;100.00;101457.75;5031354;28;20029;-70
2023/07/20 06:00:09;;;;;;;13.82;6.82;;;;;;;16.09;100.00;101455.88;5031366;28;20041;-70
2023/07/20 06:02:35;;;;;;;14.18;8.63;;;;;;;16.18;100.00;101456.44;5031513;28;20388;-70
2023/07/20 06:05:01;;;;;;;14.45;7.00;;;;;;;16.20;100.00;101451.66;5031429;28;20029;-70
2023/07/20 06:07:26;;;;;;;13.63;7.53;;;;;;;16.12;100.00;101454.63;5031218;28;20103;-70
2023/07/20 06:09:51;;;;;;;14.35;8.32;;;;;;;16.16;100.00;101458.50;5031288;28;20033;-70
2023/07/20 06:12:17;;;;;;;16.02;9.07;;;;;;;16.16;100.00;101459.34;5031284;28;20144;-70
2023/07/20 06:14:42;;;;;;;15.48;8.35;;;;;;;16.23;100.00;101461.97;5031351;28;20030;-70
2023/07/20 06:17:07;;;;;;;14.00;8.20;;;;;;;16.23;100.00;101463.84;5030990;28;20040;-70
2023/07/20 06:19:33;;;;;;;13.15;7.22;;;;;;;16.10;100.00;101467.47;5030811;28;20030;-70
2023/07/20 06:21:59;;;;;;;14.93;8.10;;;;;;;16.07;100.00;101460.66;5023687;28;20113;-70
2023/07/20 06:24:27;;;;;;;14.77;8.43;;;;;;;16.17;100.00;101455.63;5021382;28;20033;-70
2023/07/20 06:26:52;;;;;;;14.98;9.00;;;;;;;16.24;100.00;101473.56;5021725;28;20365;-71
2023/07/20 06:29:19;;;;;;;12.98;7.85;;;;;;;16.21;100.00;101478.34;5001816;28;20037;-70
2023/07/20 06:31:44;;;;;;;12.57;7.28;;;;;;;16.17;100.00;101476.31;5021763;28;20492;-69
2023/07/20 06:34:10;;;;;;;11.85;7.68;;;;;;;16.17;100.00;101479.84;5023023;28;20035;-69
2023/07/20 06:36:35;;;;;;;13.07;7.45;;;;;;;16.20;100.00;101476.69;5022609;28;20673;-69
2023/07/20 06:39:02;;;;;;;11.93;7.07;;;;;;;16.33;100.00;101470.41;5026075;28;20043;-69
2023/07/20 06:41:27;;;;;;;13.05;7.20;;;;;;;16.48;100.00;101469.22;5020462;28;20118;-69
2023/07/20 06:43:57;;;;;;;12.77;7.10;;;;;;;16.53;100.00;101472.09;5019659;28;20030;-68
2023/07/20 06:46:23;;;;;;;13.63;7.65;;;;;;;16.71;100.00;101468.59;5013216;28;20034;-65
2023/07/20 06:48:48;;;;;;;12.57;7.68;;;;;;;16.77;100.00;101467.75;5027457;28;20033;-65
2023/07/20 06:51:14;;;;;;;11.50;6.80;;;;;;;16.58;100.00;101458.78;5011375;28;20037;-68
2023/07/20 06:53:39;;;;;;;12.23;7.38;;;;;;;16.41;100.00;101472.81;5010937;28;20034;-65
2023/07/20 06:56:04;;;;;;;13.65;7.85;;;;;;;16.27;100.00;101467.75;4994516;28;20081;-64
2023/07/20 06:58:30;;;;;;;14.02;7.80;;;;;;;16.30;100.00;101470.03;5011253;28;20116;-68
2023/07/20 07:00:55;;;;;;;14.15;8.73;;;;;;;16.37;100.00;101474.31;5011188;28;20508;-68
2023/07/20 07:03:21;;;;;;;13.65;8.35;;;;;;;16.35;100.00;101479.09;4993744;28;20033;-68
2023/07/20 07:05:46;;;;;;;14.30;8.38;;;;;;;16.24;100.00;101477.06;5011246;28;20033;-69
2023/07/20 07:08:12;;;;;;;14.68;8.25;;;;;;;16.29;100.00;101473.75;5011150;28;20084;-68
2023/07/20 07:10:38;;;;;;;9.55;5.72;;;;;;;16.32;100.00;101479.53;5011334;28;20034;-68
2023/07/20 07:13:04;;;;;;;9.20;6.20;;;;;;;16.29;100.00;101474.56;5011076;28;20052;-68
2023/07/20 07:15:29;;;;;;;10.65;6.28;;;;;;;16.27;100.00;101473.97;4993517;28;20045;-68
2023/07/20 07:17:55;;;;;;;11.88;7.25;;;;;;;16.25;100.00;101473.38;5011097;28;20033;-68
2023/07/20 07:20:21;;;;;;;14.65;7.72;;;;;;;16.30;100.00;101476.22;5029414;28;20091;-68
2023/07/20 07:22:47;;;;;;;10.23;6.70;;;;;;;16.42;100.00;101489.78;5029838;28;20041;-68
2023/07/20 07:25:12;;;;;;;11.32;6.22;;;;;;;16.34;100.00;101490.88;5029675;28;20435;-68
2023/07/20 07:27:38;;;;;;;11.75;5.28;;;;;;;16.45;100.00;101489.34;5029711;28;20025;-68
2023/07/20 07:30:04;;;;;;;9.23;5.18;;;;;;;16.50;100.00;101491.38;5029685;28;20116;-68
2023/07/20 07:32:30;;;;;;;8.63;5.57;;;;;;;16.55;100.00;101489.66;5015621;28;20481;-68
2023/07/20 07:34:58;;;;;;;11.10;6.63;;;;;;;16.56;100.00;101487.81;5010292;28;20030;-66
2023/07/20 07:37:23;;;;;;;10.30;5.38;;;;;;;16.57;100.00;101487.59;5011931;28;20021;-66
2023/07/20 07:39:49;;;;;;;8.15;6.45;;;;;;;16.65;100.00;101489.19;5029280;28;20032;-68
2023/07/20 07:42:14;;;;;;;13.80;5.72;;;;;;;16.81;100.00;101487.81;5028761;28;20036;-68
2023/07/20 07:44:39;;;;;;;7.20;5.20;;;;;;;17.04;100.00;101487.97;5029172;28;20025;-68
2023/07/20 07:47:05;;;;;;;10.02;5.72;;;;;;;17.28;100.00;101493.53;5029269;28;20061;-68
2023/07/20 07:49:31;;;;;;;4.50;3.67;;;;;;;17.30;100.00;101494.94;5029073;28;20057;-70
2023/07/20 07:51:57;;;;;;;4.90;3.70;;;;;;;17.29;100.00;101498.72;5029270;28;20128;-67
2023/07/20 07:54:22;;;;;;;5.43;3.40;;;;;;;17.36;100.00;101514.78;5028846;28;20140;-67
2023/07/20 07:56:47;;;;;;;3.25;2.70;;;;;;;17.34;98.30;101505.28;5029075;28;20079;-66
2023/07/20 07:59:13;;;;;;;4.35;3.08;;;;;;;17.39;99.12;101516.22;5011093;28;20481;-67
2023/07/20 08:01:38;;;;;;;6.43;2.70;;;;;;;17.43;100.00;101509.34;5028908;28;20640;-66
2023/07/20 08:04:03;;;;;;;4.35;3.10;;;;;;;17.47;100.00;101514.03;5012018;28;20030;-65
2023/07/20 08:06:29;;;;;;;3.40;2.47;;;;;;;17.48;100.00;101510.28;4992347;28;20030;-66
2023/07/20 08:08:55;;;;;;;4.43;2.65;;;;;;;17.48;100.00;101518.38;5010304;28;20576;-66
2023/07/20 08:11:20;;;;;;;6.18;3.15;;;;;;;17.58;98.22;101520.56;5010740;28;20065;-68
2023/07/20 08:13:46;;;;;;;4.20;3.30;;;;;;;17.55;94.77;101521.00;5013478;28;20068;-66
2023/07/20 08:16:11;;;;;;;3.45;2.30;;;;;;;17.68;94.15;101517.31;5009442;28;20042;-66
2023/07/20 08:18:37;;;;;;;5.38;3.63;;;;;;;18.15;92.47;101512.09;5009138;28;20029;-66
2023/07/20 08:21:03;;;;;;;6.55;3.67;;;;;;;20.07;85.78;101515.00;5009320;28;20044;-65
2023/07/20 08:23:28;;;;;;;4.32;2.60;;;;;;;22.71;71.42;101521.28;5009919;28;20030;-66
2023/07/20 08:25:54;;;;;;;4.78;3.13;;;;;;;24.18;65.96;101522.19;5028508;28;20043;-66
2023/07/20 08:28:19;;;;;;;2.65;2.42;;;;;;;25.72;59.39;101519.91;5028773;28;20547;-66
2023/07/20 08:30:49;;;;;;;3.03;2.67;;;;;;;27.37;55.18;101517.38;5028568;28;20056;-66
2023/07/20 08:33:15;;;;;;;6.22;2.97;;;;;;;27.63;51.97;101525.25;5028663;28;20473;-66
2023/07/20 08:35:41;;;;;;;2.38;2.13;;;;;;;26.75;50.43;101519.13;5028328;28;20104;-66
2023/07/20 08:38:07;;;;;;;2.83;2.30;;;;;;;25.33;55.35;101514.38;5028474;28;20065;-66
2023/07/20 08:40:34;;;;;;;4.90;2.70;;;;;;;25.02;56.88;101510.91;5029000;28;20065;-66
2023/07/20 08:43:02;;;;;;;3.53;2.50;;;;;;;25.64;54.52;101517.78;5009891;28;20030;-66
2023/07/20 08:45:31;;;;;;;3.08;2.17;;;;;;;24.98;54.51;101512.56;5028593;28;20124;-66
2023/07/20 08:47:58;;;;;;;3.83;2.08;;;;;;;23.78;58.61;101507.38;5029013;28;20033;-66
2023/07/20 08:50:26;;;;;;;2.78;1.75;;;;;;;22.67;62.82;101508.47;5023687;28;20153;-66
2023/07/20 08:52:52;;;;;;;3.53;2.03;;;;;;;21.71;66.52;101515.47;5028904;28;20037;-66
2023/07/20 08:55:23;;;;;;;2.10;1.90;;;;;;;20.84;69.57;101503.50;5031777;28;20049;-66
2023/07/20 08:57:50;;;;;;;3.95;2.10;;;;;;;20.28;73.54;101505.31;5032657;28;20053;-66
2023/07/20 09:00:19;;;;;;;3.97;2.58;;;;;;;19.82;73.64;101504.50;5013475;28;20065;-66
2023/07/20 09:02:46;;;;;;;4.10;2.72;;;;;;;19.37;78.33;101497.94;5012636;28;20030;-66
2023/07/20 09:05:13;;;;;;;4.18;2.38;;;;;;;19.12;80.92;101511.72;4995311;28;20040;-67
2023/07/20 09:07:40;;;;;;;3.78;2.83;;;;;;;18.90;82.39;101513.41;5032594;28;20033;-66
2023/07/20 09:10:06;;;;;;;4.97;2.45;;;;;;;18.75;83.79;101508.47;5030753;28;20064;-67
2023/07/20 09:12:42;;;;;;;4.25;2.88;;;;;;;18.67;86.92;101509.59;5031722;28;20476;-66
2023/07/20 09:15:09;;;;;;;4.10;3.05;;;;;;;18.55;87.72;101508.78;5032757;28;20032;-66
2023/07/20 09:17:34;;;;;;;7.03;4.38;;;;;;;18.49;87.72;101507.81;5032006;28;20628;-65
2023/07/20 09:20:10;;;;;;;5.15;3.78;;;;;;;18.49;87.00;101504.31;5032132;28;20052;-66
2023/07/20 09:22:39;;;;;;;7.18;3.67;;;;;;;18.50;84.98;101509.50;5031983;28;20047;-67
2023/07/20 09:25:07;;;;;;;6.10;4.00;;;;;;;18.64;87.94;101499.28;5031494;28;20029;-70
2023/07/20 09:27:37;;;;;;;3.88;3.05;;;;;;;18.99;85.66;101503.88;5031999;28;20061;-69
2023/07/20 09:30:04;;;;;;;6.20;3.60;;;;;;;19.27;80.57;101506.63;5031887;28;20036;-69
2023/07/20 09:32:29;;;;;;;5.85;3.80;;;;;;;19.52;77.86;101497.41;5032149;28;20029;-69
2023/07/20 09:34:55;;;;;;;4.68;3.30;;;;;;;19.61;76.30;101498.66;5031926;28;20063;-70
2023/07/20 09:37:22;;;;;;;4.07;3.20;;;;;;;19.81;75.59;101495.56;5031815;28;20038;-70
2023/07/20 09:39:48;;;;;;;6.20;3.22;;;;;;;20.08;77.24;101494.94;5031856;28;20087;-70
2023/07/20 09:42:14;;;;;;;3.92;3.08;;;;;;;20.14;74.65;101485.84;5031894;28;20493;-70
2023/07/20 09:44:40;;;;;;;4.78;3.90;;;;;;;19.91;77.51;101484.09;5031671;28;20124;-70
2023/07/20 09:47:06;;;;;;;6.57;4.47;;;;;;;19.76;75.57;101483.81;5031838;28;20088;-69
2023/07/20 09:49:32;;;;;;;9.40;4.30;;;;;;;19.58;80.12;101488.31;5031552;28;20500;-70
2023/07/20 09:52:00;;;;;;;6.30;4.35;;;;;;;19.45;78.44;101486.72;5031615;28;20091;-70
2023/07/20 09:54:27;;;;;;;7.47;4.40;;;;;;;19.49;81.93;101482.50;5012523;28;20505;-70
2023/07/20 09:56:53;;;;;;;5.00;3.35;;;;;;;19.50;80.58;101483.31;5031444;28;20504;-70
2023/07/20 09:59:18;;;;;;;5.85;4.15;;;;;;;19.43;81.07;101474.50;5031445;28;20087;-70
2023/07/20 10:01:46;;;;;;;7.45;4.20;;;;;;;19.55;81.50;101478.00;4997790;28;20133;-70
2023/07/20 10:04:12;;;;;;;5.10;4.32;;;;;;;19.76;78.34;101489.25;5030558;28;20025;-69
2023/07/20 10:06:42;;;;;;;7.50;5.32;;;;;;;19.98;78.62;101473.13;5031506;28;20030;-70
2023/07/20 10:09:10;;;;;;;4.68;3.58;;;;;;;20.17;79.96;101474.50;5031238;28;20036;-70
2023/07/20 10:11:39;;;;;;;5.15;4.25;;;;;;;20.13;71.33;101476.91;5031295;28;20057;-70
2023/07/20 10:14:11;;;;;;;6.03;4.35;;;;;;;20.28;75.40;101479.06;5031160;28;20033;-70
2023/07/20 10:16:51;;;;;;;10.10;4.25;;;;;;;20.38;74.10;101477.56;5031367;28;20340;-70
2023/07/20 10:19:25;;;;;;;6.18;4.45;;;;;;;20.56;75.68;101478.16;5031233;28;20079;-70
2023/07/20 10:21:57;;;;;;;7.57;4.93;;;;;;;20.67;72.85;101470.16;5011984;28;20042;-70
2023/07/20 10:24:24;;;;;;;5.10;4.10;;;;;;;20.64;74.88;101473.38;5012195;28;20484;-70
2023/07/20 10:26:50;;;;;;;7.53;4.65;;;;;;;20.51;74.87;101466.38;5012100;28;20030;-70
2023/07/20 10:29:16;;;;;;;6.70;5.15;;;;;;;20.49;73.67;101460.41;5012160;28;20992;-70
2023/07/20 10:31:42;;;;;;;6.45;4.57;;;;;;;20.75;72.53;101469.75;4994257;28;20033;-70
2023/07/20 10:34:08;;;;;;;4.57;3.25;;;;;;;20.77;68.70;101460.28;5012845;28;20029;-70
2023/07/20 10:36:45;;;;;;;4.18;3.78;;;;;;;21.07;71.02;101459.06;5030810;28;20120;-70
2023/07/20 10:39:23;;;;;;;4.40;3.78;;;;;;;21.22;70.62;101461.97;5030612;28;20053;-70
2023/07/20 10:41:48;;;;;;;6.38;4.43;;;;;;;21.30;71.95;101457.16;5030655;28;20659;-70
2023/07/20 10:44:19;;;;;;;4.50;3.55;;;;;;;21.36;70.62;101459.69;5030830;28;20037;-70
2023/07/20 10:46:46;;;;;;;7.20;3.83;;;;;;;21.52;69.78;101459.91;5030708;28;20524;-70
2023/07/20 10:49:12;;;;;;;5.45;3.67;;;;;;;21.60;68.20;101451.28;5030487;28;20026;-70
2023/07/20 10:51:59;;;;;;;4.70;3.88;;;;;;;21.72;69.66;101457.41;5030358;28;20111;-70
2023/07/20 10:54:24;;;;;;;3.85;3.03;;;;;;;21.80;65.46;101454.22;5030195;28;20041;-70
2023/07/20 10:56:50;;;;;;;2.20;2.00;;;;;;;22.00;64.13;101455.47;5003845;28;20180;-70
2023/07/20 10:59:25;;;;;;;3.00;2.10;;;;;;;22.02;63.99;101450.59;5011427;28;20293;-70
2023/07/20 11:01:55;;;;;;;6.55;4.15;;;;;;;21.73;67.79;101452.78;5010742;28;20034;-67
2023/07/20 11:04:37;;;;;;;4.30;3.38;;;;;;;21.63;71.60;101442.63;5025643;28;20052;-66
2023/07/20 11:07:03;;;;;;;;;;;;;;;21.84;69.78;101446.38;4993965;28;20033;-66
2023/07/20 11:09:34;;;;;;;3.95;3.05;;;;;;;21.62;65.20;101451.88;5010941;28;20398;-66
2023/07/20 11:12:16;;;;;;;4.95;2.78;;;;;;;21.47;67.39;101457.94;5010621;28;20123;-66